Wheelwright, MA (01094)

6:06 PM EDT on July 23, 2016 (GMT -0400)
pine street | | Change Station
Active Advisory: Severe Thunderstorm Watch Active Notice: Local Storm Report

Elev 587 ft 42.35 °N, 72.14 °W | Updated 9 seconds ago

Mostly Cloudy
Mostly Cloudy
90.0 °F
Feels Like 88 °F
N
0.4
Wind Variable Wind from NW
Gusts 2.5 mph

Today
High -- | Low -- °F
--% Chance of Precip.
Yesterday
High -- | Low -- °F
Precip. -- in
Pressure 29.78 in
Visibility 10.0 miles
Clouds Scattered Clouds 8000 ft
Mostly Cloudy 9500 ft
Heat Index 88 °F
Dew Point 54 °F
Humidity 29%
Rainfall 0.00 in
Snow Depth Not available.
5:32 AM 8:16 PM
Waning Gibbous, 82% visible
METAR KORH 232154Z 27013G22KT 10SM SCT080 BKN095 30/12 A2980 RMK AO2 SLP084 T03000117
Pressure 29.78 in
Visibility 10.0 miles
Clouds Scattered Clouds 8000 ft
Mostly Cloudy 9500 ft
Heat Index 88 °F
Dew Point 54 °F
Humidity 29%
Rainfall 0.00 in
Snow Depth Not available.
5:32 AM 8:16 PM
Waning Gibbous, 82% visible
METAR KORH 232154Z 27013G22KT 10SM SCT080 BKN095 30/12 A2980 RMK AO2 SLP084 T03000117

10-Day Weather Forecast

Almanac

Astronomy

Jul. 23, 2016 Rise Set
Actual Time
Civil Twilight
Nautical Twilight
Astronomical Twilight
Moon
Length of Visible Light
Length of Day
Tomorrow will be .
, % of the Moon is Illuminated

Today's Extremes

State Highs State Lows

Community

WunderPhotos

Upload Photos

1,926,942 photos uploaded!

WunderBlog® & News

Nearby

Air Quality

  Air Quality AQ Index Pollutant
Not available.

Snow Depth

Station Depth Elevation

Earthquake Activity

City Distance Mag. Time & Date
Minimum magnitude displayed is 2.5.

Coastal Water Temperatures

Place Temperature

Stations

Nearby Weather Stations

Station Location Temp. Windchill Dew Point Humidity Wind Precip. Elev Updated Type
                   

Watches & Warnings

Severe Thunderstorm Watch
Issued: 6:04 PM EDT Jul. 23, 2016 – National Weather Service


The National Weather Service has issued Severe Thunderstorm Watch
413 in effect until 10 PM EDT this evening for the following
areas

In Massachusetts this watch includes 8 counties

In central Massachusetts

Worcester

In eastern Massachusetts

Middlesex Norfolk Suffolk

In northeastern Massachusetts

Essex

In western Massachusetts

Franklin Hampden Hampshire

This includes the cities of... Boston... Fitchburg... Foxborough...
Framingham... Gloucester... Greenfield... Lawrence... Lowell...
Northampton... Quincy... Springfield and Worcester.